createdAt,value
2023-05-12T00:00:39.460Z,21.96
2023-05-12T00:03:05.849Z,21.99
2023-05-12T00:05:32.252Z,22.01
2023-05-12T00:07:58.581Z,21.99
2023-05-12T00:10:26.254Z,22.00
2023-05-12T00:12:52.579Z,21.99
2023-05-12T00:15:19.995Z,21.98
2023-05-12T00:17:46.347Z,21.97
2023-05-12T00:20:12.777Z,21.97
2023-05-12T00:22:41.778Z,21.98
2023-05-12T00:25:08.269Z,21.97
2023-05-12T00:27:34.620Z,21.96
2023-05-12T00:30:00.968Z,21.95
2023-05-12T00:32:27.421Z,21.96
2023-05-12T00:34:54.510Z,21.95
2023-05-12T00:37:21.138Z,21.94
2023-05-12T00:39:47.478Z,21.94
2023-05-12T00:42:13.966Z,21.94
2023-05-12T00:44:40.455Z,21.93
2023-05-12T00:47:06.838Z,21.93
2023-05-12T00:49:33.209Z,21.93
2023-05-12T00:51:59.553Z,21.93
2023-05-12T00:54:28.861Z,21.93
2023-05-12T00:56:55.179Z,21.91
2023-05-12T00:59:22.536Z,21.93
2023-05-12T01:01:48.909Z,21.92
2023-05-12T01:04:15.837Z,21.92
2023-05-12T01:06:46.175Z,21.91
2023-05-12T01:09:13.263Z,21.91
2023-05-12T01:11:39.751Z,21.91
2023-05-12T01:14:06.111Z,21.91
2023-05-12T01:16:37.203Z,21.89
2023-05-12T01:19:04.613Z,21.89
2023-05-12T01:21:31.889Z,21.90
2023-05-12T01:23:58.778Z,21.90
2023-05-12T01:26:29.721Z,21.91
2023-05-12T01:28:56.621Z,21.90
2023-05-12T01:31:23.899Z,21.89
2023-05-12T01:33:50.256Z,21.89
2023-05-12T01:36:16.750Z,21.90
2023-05-12T01:38:43.467Z,21.89
2023-05-12T01:41:09.816Z,21.88
2023-05-12T01:43:36.422Z,21.84
2023-05-12T01:46:02.920Z,21.88
2023-05-12T01:48:29.654Z,21.88
2023-05-12T01:50:59.647Z,21.88
2023-05-12T01:53:26.007Z,21.87
2023-05-12T01:55:52.344Z,21.86
2023-05-12T01:58:20.417Z,21.84
2023-05-12T02:00:47.120Z,21.87
2023-05-12T02:03:17.216Z,21.84
2023-05-12T02:05:43.609Z,21.83
2023-05-12T02:08:09.960Z,21.83
2023-05-12T02:10:36.408Z,21.84
2023-05-12T02:13:02.908Z,21.83
2023-05-12T02:15:30.987Z,21.83
2023-05-12T02:17:58.396Z,21.83
2023-05-12T02:20:25.089Z,21.82
2023-05-12T02:22:51.418Z,21.81
2023-05-12T02:25:17.738Z,21.82
2023-05-12T02:27:45.023Z,21.83
2023-05-12T02:30:11.868Z,21.81
2023-05-12T02:32:38.253Z,21.82
2023-05-12T02:35:06.372Z,21.81
2023-05-12T02:37:33.067Z,21.80
2023-05-12T02:39:59.431Z,21.81
2023-05-12T02:42:28.803Z,21.81
2023-05-12T02:44:55.388Z,21.80
2023-05-12T02:47:22.388Z,21.80
2023-05-12T02:49:50.160Z,21.80
2023-05-12T02:52:16.505Z,21.80
2023-05-12T02:54:42.871Z,21.80
2023-05-12T02:57:10.760Z,21.80
2023-05-12T02:59:37.097Z,21.79
2023-05-12T03:02:04.885Z,21.79
2023-05-12T03:04:33.052Z,21.79
2023-05-12T03:06:59.411Z,21.80
2023-05-12T03:09:25.905Z,21.79
2023-05-12T03:11:52.231Z,21.80
2023-05-12T03:14:19.432Z,21.77
2023-05-12T03:16:45.793Z,21.78
2023-05-12T03:19:12.240Z,21.79
2023-05-12T03:21:38.620Z,21.78
2023-05-12T03:24:05.113Z,21.79
2023-05-12T03:26:31.607Z,21.78
2023-05-12T03:28:58.101Z,21.78
2023-05-12T03:31:24.498Z,21.78
2023-05-12T03:33:50.868Z,21.78
2023-05-12T03:36:17.407Z,21.77
2023-05-12T03:38:44.180Z,21.77
2023-05-12T03:41:12.861Z,21.75
2023-05-12T03:43:40.365Z,21.75
2023-05-12T03:46:06.796Z,21.74
2023-05-12T03:48:33.177Z,21.75
2023-05-12T03:50:59.682Z,21.74
2023-05-12T03:53:27.549Z,21.74
2023-05-12T03:55:54.852Z,21.75
2023-05-12T03:58:22.362Z,21.74
2023-05-12T04:00:50.078Z,21.74
2023-05-12T04:03:16.796Z,21.73
2023-05-12T04:05:43.209Z,21.70
2023-05-12T04:08:09.560Z,21.72
2023-05-12T04:10:39.859Z,21.72
2023-05-12T04:13:06.526Z,21.75
2023-05-12T04:15:32.865Z,21.69
2023-05-12T04:17:59.232Z,21.68
2023-05-12T04:20:25.652Z,21.63
2023-05-12T04:22:52.069Z,21.63
2023-05-12T04:25:18.441Z,21.61
2023-05-12T04:27:44.931Z,21.61
2023-05-12T04:30:11.420Z,21.64
2023-05-12T04:32:39.590Z,21.62
2023-05-12T04:35:06.594Z,21.66
2023-05-12T04:37:33.265Z,21.65
2023-05-12T04:39:59.700Z,21.72
2023-05-12T04:42:26.588Z,21.66
2023-05-12T04:44:53.048Z,21.22
2023-05-12T04:47:19.573Z,21.08
2023-05-12T04:49:45.960Z,21.22
2023-05-12T04:52:14.120Z,21.34
2023-05-12T04:54:40.458Z,21.43
2023-05-12T04:57:06.857Z,21.49
2023-05-12T04:59:33.597Z,21.52
2023-05-12T05:02:00.006Z,21.55
2023-05-12T05:04:26.364Z,21.57
2023-05-12T05:06:52.750Z,21.58
2023-05-12T05:09:19.282Z,21.59
2023-05-12T05:11:45.676Z,21.60
2023-05-12T05:14:12.182Z,21.61
2023-05-12T05:16:38.578Z,21.62
2023-05-12T05:19:06.745Z,21.62
2023-05-12T05:21:38.426Z,21.62
2023-05-12T05:24:05.900Z,21.62
2023-05-12T05:26:33.526Z,21.64
2023-05-12T05:28:59.896Z,21.64
2023-05-12T05:31:28.618Z,21.64
2023-05-12T05:33:55.315Z,21.63
2023-05-12T05:36:23.294Z,21.65
2023-05-12T05:38:49.647Z,21.65
2023-05-12T05:41:15.986Z,21.64
2023-05-12T05:43:42.402Z,21.65
2023-05-12T05:46:09.144Z,21.65
2023-05-12T05:48:38.490Z,21.66
2023-05-12T05:51:06.262Z,21.66
2023-05-12T05:53:32.837Z,21.66
2023-05-12T05:55:59.520Z,21.65
2023-05-12T05:58:25.849Z,21.66
2023-05-12T06:00:52.202Z,21.66
2023-05-12T06:03:18.668Z,21.67
2023-05-12T06:05:45.351Z,21.66
2023-05-12T06:08:13.445Z,21.67
2023-05-12T06:10:40.974Z,21.68
2023-05-12T06:13:07.344Z,21.67
2023-05-12T06:15:33.729Z,21.68
2023-05-12T06:18:00.170Z,21.67
2023-05-12T06:20:26.559Z,21.69
2023-05-12T06:22:52.916Z,21.69
2023-05-12T06:25:19.367Z,21.69
2023-05-12T06:27:45.782Z,21.69
2023-05-12T06:30:14.958Z,21.71
2023-05-12T06:32:42.242Z,21.70
2023-05-12T06:35:08.737Z,21.70
2023-05-12T06:37:35.126Z,21.71
2023-05-12T06:40:01.460Z,21.73
2023-05-12T06:42:27.825Z,21.73
2023-05-12T06:44:55.934Z,21.71
2023-05-12T06:47:22.305Z,21.73
2023-05-12T06:49:49.986Z,21.71
2023-05-12T06:52:17.090Z,21.73
2023-05-12T06:54:43.424Z,21.73
2023-05-12T06:57:09.820Z,21.73
2023-05-12T06:59:36.144Z,21.75
2023-05-12T07:02:02.495Z,21.74
2023-05-12T07:04:29.662Z,21.74
2023-05-12T07:06:56.688Z,21.74
2023-05-12T07:09:23.009Z,21.75
2023-05-12T07:11:49.327Z,21.77
2023-05-12T07:14:15.754Z,21.76
2023-05-12T07:16:42.090Z,21.77
2023-05-12T07:19:09.604Z,21.77
2023-05-12T07:21:36.410Z,21.78
2023-05-12T07:24:02.731Z,21.78
2023-05-12T07:26:29.776Z,21.77
2023-05-12T07:28:56.120Z,21.78
2023-05-12T07:31:22.490Z,21.79
2023-05-12T07:33:48.841Z,21.80
2023-05-12T07:36:15.183Z,21.78
2023-05-12T07:38:41.651Z,21.80
2023-05-12T07:41:08.024Z,21.80
2023-05-12T07:43:34.374Z,21.80
2023-05-12T07:46:01.155Z,21.81
2023-05-12T07:48:27.517Z,21.80
2023-05-12T07:50:53.847Z,21.81
2023-05-12T07:53:20.164Z,21.82
2023-05-12T07:55:46.477Z,21.83
2023-05-12T07:58:12.794Z,21.83
2023-05-12T08:00:39.124Z,21.82
2023-05-12T08:03:06.449Z,21.83
2023-05-12T08:05:32.971Z,21.83
2023-05-12T08:07:59.301Z,21.83
2023-05-12T08:10:29.579Z,21.84
2023-05-12T08:12:55.919Z,21.84
2023-05-12T08:15:22.492Z,21.86
2023-05-12T08:17:49.163Z,21.84
2023-05-12T08:20:15.613Z,21.86
2023-05-12T08:22:42.157Z,21.83
2023-05-12T08:25:10.350Z,21.83
2023-05-12T08:27:38.791Z,21.87
2023-05-12T08:30:05.498Z,21.85
2023-05-12T08:32:31.973Z,21.88
2023-05-12T08:34:58.310Z,21.86
2023-05-12T08:37:24.661Z,21.88
2023-05-12T08:39:50.984Z,21.88
2023-05-12T08:42:37.198Z,21.88
2023-05-12T08:45:04.157Z,21.88
2023-05-12T08:47:30.926Z,21.90
2023-05-12T08:50:00.925Z,21.90
2023-05-12T08:52:31.663Z,21.88
2023-05-12T08:54:59.446Z,21.89
2023-05-12T08:57:28.749Z,21.89
2023-05-12T08:59:56.285Z,21.90
2023-05-12T09:02:23.626Z,21.91
2023-05-12T09:04:51.126Z,21.92
2023-05-12T09:07:22.409Z,21.92
2023-05-12T09:09:48.991Z,21.90
2023-05-12T09:12:16.919Z,21.92
2023-05-12T09:14:43.330Z,21.92
2023-05-12T09:17:09.668Z,21.93
2023-05-12T09:19:35.989Z,21.92
2023-05-12T09:22:02.317Z,21.93
2023-05-12T09:24:35.059Z,21.94
2023-05-12T09:27:01.384Z,21.94
2023-05-12T09:29:31.801Z,21.94
2023-05-12T09:32:02.275Z,21.94
2023-05-12T09:34:32.360Z,21.94
2023-05-12T09:36:59.354Z,21.95
2023-05-12T09:39:25.733Z,21.95
2023-05-12T09:41:52.717Z,21.97
2023-05-12T09:44:19.073Z,21.96
2023-05-12T09:46:45.421Z,21.95
2023-05-12T09:49:11.954Z,21.97
2023-05-12T09:51:38.466Z,21.98
2023-05-12T09:54:06.476Z,21.99
2023-05-12T09:56:35.200Z,21.98
2023-05-12T09:59:01.581Z,21.96
2023-05-12T10:01:28.254Z,21.96
2023-05-12T10:03:55.658Z,21.96
2023-05-12T10:06:26.930Z,21.98
2023-05-12T10:08:54.624Z,21.99
2023-05-12T10:11:21.431Z,22.00
2023-05-12T10:13:47.803Z,21.99
2023-05-12T10:16:14.178Z,21.99
2023-05-12T10:18:40.811Z,22.00
2023-05-12T10:21:08.114Z,22.01
2023-05-12T10:23:37.157Z,22.03
2023-05-12T10:26:04.198Z,22.00
2023-05-12T10:28:30.557Z,22.02
2023-05-12T10:30:57.316Z,22.03
2023-05-12T10:33:24.036Z,22.03
2023-05-12T10:35:51.117Z,22.03
2023-05-12T10:38:17.585Z,22.04
2023-05-12T10:40:58.346Z,22.02
2023-05-12T10:43:26.646Z,22.02
2023-05-12T10:46:11.654Z,22.00
2023-05-12T10:48:50.007Z,22.02
2023-05-12T10:51:18.999Z,22.05
2023-05-12T10:53:49.121Z,22.04
2023-05-12T10:56:23.870Z,22.06
2023-05-12T10:59:10.127Z,22.03
2023-05-12T11:01:37.616Z,22.05
2023-05-12T11:04:14.228Z,22.07
2023-05-12T11:06:41.138Z,22.08
2023-05-12T11:09:09.027Z,22.08
2023-05-12T11:11:36.248Z,22.08
2023-05-12T11:14:02.932Z,22.09
2023-05-12T11:16:29.291Z,22.07
2023-05-12T11:19:02.680Z,22.08
2023-05-12T11:21:30.192Z,22.10
2023-05-12T11:23:56.526Z,22.10
2023-05-12T11:26:22.851Z,22.09
2023-05-12T11:28:49.183Z,22.08
2023-05-12T11:31:19.808Z,22.08
2023-05-12T11:33:46.409Z,22.09
2023-05-12T11:36:12.756Z,22.10
2023-05-12T11:38:39.109Z,22.06
2023-05-12T11:41:05.500Z,22.08
2023-05-12T11:43:31.834Z,22.10
2023-05-12T11:45:59.709Z,22.11
2023-05-12T11:48:32.664Z,22.11
2023-05-12T11:50:59.024Z,22.10
2023-05-12T11:53:26.083Z,22.10
2023-05-12T11:55:54.531Z,22.08
2023-05-12T11:58:21.945Z,22.10
2023-05-12T12:00:49.008Z,22.10
2023-05-12T12:03:15.847Z,22.12
2023-05-12T12:05:43.277Z,22.12
2023-05-12T12:08:10.519Z,22.13
2023-05-12T12:10:36.881Z,22.14
2023-05-12T12:13:03.376Z,22.15
2023-05-12T12:15:29.706Z,22.16
2023-05-12T12:17:56.112Z,22.15
2023-05-12T12:20:24.627Z,22.18
2023-05-12T12:22:51.590Z,22.18
2023-05-12T12:25:18.100Z,22.20
2023-05-12T12:27:44.565Z,22.20
2023-05-12T12:30:11.654Z,22.20
2023-05-12T12:32:38.580Z,22.20
2023-05-12T12:35:06.753Z,22.21
2023-05-12T12:37:33.139Z,22.24
2023-05-12T12:39:59.452Z,22.26
2023-05-12T12:42:25.834Z,22.27
2023-05-12T12:44:52.426Z,22.29
2023-05-12T12:47:18.801Z,22.28
2023-05-12T12:49:45.189Z,22.27
2023-05-12T12:52:11.579Z,22.27
2023-05-12T12:54:37.892Z,22.27
2023-05-12T12:57:04.574Z,22.27
2023-05-12T12:59:30.917Z,22.28
2023-05-12T13:01:59.881Z,22.29
2023-05-12T13:04:26.348Z,22.28
2023-05-12T13:06:52.782Z,22.31
2023-05-12T13:09:20.095Z,22.33
2023-05-12T13:11:46.966Z,22.32
2023-05-12T13:14:13.294Z,22.32
2023-05-12T13:16:39.700Z,22.35
2023-05-12T13:19:06.232Z,22.36
2023-05-12T13:21:33.309Z,22.32
2023-05-12T13:24:00.048Z,22.37
2023-05-12T13:26:26.621Z,22.38
2023-05-12T13:28:53.492Z,22.39
2023-05-12T13:31:19.839Z,22.40
2023-05-12T13:33:46.217Z,22.43
2023-05-12T13:36:12.568Z,22.40
2023-05-12T13:38:39.090Z,22.38
2023-05-12T13:41:05.787Z,22.43
2023-05-12T13:43:32.113Z,22.41
2023-05-12T13:45:58.457Z,22.43
2023-05-12T13:48:24.823Z,22.43
2023-05-12T13:50:51.605Z,22.44
2023-05-12T13:53:17.936Z,22.43
2023-05-12T13:55:44.994Z,22.42
2023-05-12T13:58:11.331Z,22.44
2023-05-12T14:00:37.675Z,22.45
2023-05-12T14:03:04.082Z,22.46
2023-05-12T14:05:30.618Z,22.45
2023-05-12T14:07:57.152Z,22.49
2023-05-12T14:10:23.810Z,22.47
2023-05-12T14:12:50.151Z,22.46
2023-05-12T14:15:32.347Z,22.48
2023-05-12T14:17:59.789Z,22.49
2023-05-12T14:20:26.210Z,22.50
2023-05-12T14:22:52.681Z,22.50
2023-05-12T14:25:19.412Z,22.49
2023-05-12T14:27:45.994Z,22.50
2023-05-12T14:30:12.469Z,22.49
2023-05-12T14:32:38.985Z,22.51
2023-05-12T14:35:06.617Z,22.50
2023-05-12T14:37:34.552Z,22.53
2023-05-12T14:40:01.332Z,22.48
2023-05-12T14:42:29.390Z,22.51
2023-05-12T14:44:56.339Z,22.51
2023-05-12T14:47:22.727Z,22.51
2023-05-12T14:49:49.168Z,22.52
2023-05-12T14:52:15.763Z,22.52
2023-05-12T14:54:42.075Z,22.54
2023-05-12T14:57:08.744Z,22.52
2023-05-12T14:59:35.082Z,22.53
2023-05-12T15:02:01.461Z,22.52
2023-05-12T15:04:27.887Z,22.56
2023-05-12T15:06:54.213Z,22.56
2023-05-12T15:09:20.638Z,22.56
2023-05-12T15:11:47.081Z,22.57
2023-05-12T15:14:13.466Z,22.55
2023-05-12T15:16:40.001Z,22.56
2023-05-12T15:19:06.470Z,22.58
2023-05-12T15:21:34.842Z,22.57
2023-05-12T15:24:01.866Z,22.57
2023-05-12T15:26:33.605Z,22.61
2023-05-12T15:29:00.427Z,22.60
2023-05-12T15:31:28.177Z,22.59
2023-05-12T15:33:54.553Z,22.59
2023-05-12T15:36:20.878Z,22.61
2023-05-12T15:38:47.265Z,22.62
2023-05-12T15:41:13.593Z,22.61
2023-05-12T15:43:40.987Z,22.59
2023-05-12T15:46:07.769Z,22.62
2023-05-12T15:48:34.164Z,22.63
2023-05-12T15:51:02.248Z,22.63
2023-05-12T15:53:28.596Z,22.62
2023-05-12T15:56:01.409Z,22.62
2023-05-12T15:58:28.375Z,22.61
2023-05-12T16:00:54.846Z,22.60
2023-05-12T16:03:21.243Z,22.61
2023-05-12T16:05:47.647Z,22.60
2023-05-12T16:08:14.253Z,22.61
2023-05-12T16:10:40.926Z,22.63
2023-05-12T16:13:07.274Z,22.61
2023-05-12T16:15:33.611Z,22.63
2023-05-12T16:17:59.978Z,22.62
2023-05-12T16:20:26.347Z,22.64
2023-05-12T16:22:53.374Z,22.63
2023-05-12T16:25:20.190Z,22.68
2023-05-12T16:27:46.748Z,22.68
2023-05-12T16:30:13.275Z,22.61
2023-05-12T16:32:42.581Z,22.52
2023-05-12T16:35:08.971Z,22.44
2023-05-12T16:37:35.310Z,22.45
2023-05-12T16:40:01.665Z,22.45
2023-05-12T16:42:28.104Z,22.44
2023-05-12T16:44:57.816Z,22.49
2023-05-12T16:47:24.182Z,22.48
2023-05-12T16:49:53.479Z,22.36
2023-05-12T16:52:19.860Z,22.28
2023-05-12T16:54:46.229Z,22.22
2023-05-12T16:57:12.569Z,22.23
2023-05-12T16:59:39.633Z,22.12
2023-05-12T17:02:06.222Z,22.10
2023-05-12T17:04:32.788Z,22.19
2023-05-12T17:06:59.170Z,22.20
2023-05-12T17:09:25.509Z,22.10
2023-05-12T17:11:51.854Z,22.10
2023-05-12T17:14:19.344Z,22.16
2023-05-12T17:16:45.968Z,22.29
2023-05-12T17:19:14.114Z,22.37
2023-05-12T17:21:41.132Z,22.39
2023-05-12T17:24:08.100Z,22.45
2023-05-12T17:26:34.585Z,22.44
2023-05-12T17:29:01.257Z,22.46
2023-05-12T17:31:27.639Z,22.45
2023-05-12T17:33:54.070Z,22.48
2023-05-12T17:36:20.456Z,22.48
2023-05-12T17:38:46.841Z,22.47
2023-05-12T17:41:13.534Z,22.46
2023-05-12T17:43:39.890Z,22.47
2023-05-12T17:46:07.656Z,22.49
2023-05-12T17:48:34.017Z,22.50
2023-05-12T17:51:00.858Z,22.49
2023-05-12T17:53:27.182Z,22.50
2023-05-12T17:55:54.251Z,22.52
2023-05-12T17:58:20.836Z,22.53
2023-05-12T18:00:47.259Z,22.50
2023-05-12T18:03:13.710Z,22.52
2023-05-12T18:05:40.126Z,22.53
2023-05-12T18:08:07.891Z,22.53
2023-05-12T18:10:35.695Z,22.55
2023-05-12T18:13:02.049Z,22.55
2023-05-12T18:15:30.005Z,22.53
2023-05-12T18:17:57.845Z,22.55
2023-05-12T18:20:24.235Z,22.52
2023-05-12T18:22:51.707Z,22.54
2023-05-12T18:25:18.182Z,22.54
2023-05-12T18:27:44.608Z,22.56
2023-05-12T18:30:11.276Z,22.55
2023-05-12T18:32:38.130Z,22.52
2023-05-12T18:35:05.568Z,22.53
2023-05-12T18:37:32.000Z,22.51
2023-05-12T18:39:58.540Z,22.54
2023-05-12T18:42:25.737Z,22.56
2023-05-12T18:44:52.313Z,22.58
2023-05-12T18:47:18.998Z,22.57
2023-05-12T18:49:45.346Z,22.56
2023-05-12T18:52:11.662Z,22.55
2023-05-12T18:54:38.228Z,22.57
2023-05-12T18:57:04.578Z,22.55
2023-05-12T18:59:31.271Z,22.54
2023-05-12T19:01:57.670Z,22.58
2023-05-12T19:04:24.106Z,22.57
2023-05-12T19:06:50.491Z,22.58
2023-05-12T19:09:17.181Z,22.58
2023-05-12T19:11:44.271Z,22.57
2023-05-12T19:14:10.676Z,22.57
2023-05-12T19:16:38.086Z,22.57
2023-05-12T19:19:04.733Z,22.57
2023-05-12T19:21:32.298Z,22.57
2023-05-12T19:23:58.688Z,22.57
2023-05-12T19:26:25.056Z,22.56
2023-05-12T19:28:51.400Z,22.57
2023-05-12T19:31:17.861Z,22.55
2023-05-12T19:33:44.284Z,22.55
2023-05-12T19:36:11.328Z,22.55
2023-05-12T19:38:37.766Z,22.55
2023-05-12T19:41:04.129Z,22.55
2023-05-12T19:43:30.470Z,22.56
2023-05-12T19:45:56.817Z,22.53
2023-05-12T19:48:23.150Z,22.55
2023-05-12T19:50:49.476Z,22.56
2023-05-12T19:53:15.821Z,22.52
2023-05-12T19:55:42.157Z,22.55
2023-05-12T19:58:08.887Z,22.54
2023-05-12T20:00:36.966Z,22.55
2023-05-12T20:03:05.408Z,22.54
2023-05-12T20:05:31.802Z,22.54
2023-05-12T20:07:58.125Z,22.54
2023-05-12T20:10:24.451Z,22.55
2023-05-12T20:12:51.666Z,22.55
2023-05-12T20:15:18.015Z,22.52
2023-05-12T20:17:44.355Z,22.53
2023-05-12T20:20:11.489Z,22.54
2023-05-12T20:22:38.849Z,22.53
2023-05-12T20:25:05.359Z,22.53
2023-05-12T20:27:31.870Z,22.52
2023-05-12T20:29:58.644Z,22.53
2023-05-12T20:32:25.028Z,22.51
2023-05-12T20:34:51.377Z,22.52
2023-05-12T20:37:18.168Z,22.51
2023-05-12T20:39:44.529Z,22.51
2023-05-12T20:42:10.955Z,22.51
2023-05-12T20:44:37.342Z,22.50
2023-05-12T20:47:03.798Z,22.51
2023-05-12T20:49:30.173Z,22.50
2023-05-12T20:51:56.530Z,22.50
2023-05-12T20:54:22.874Z,22.50
2023-05-12T20:56:49.225Z,22.49
2023-05-12T20:59:15.567Z,22.50
2023-05-12T21:01:41.926Z,22.49
2023-05-12T21:04:08.361Z,22.50
2023-05-12T21:06:34.866Z,22.50
2023-05-12T21:09:01.183Z,22.49
2023-05-12T21:11:27.563Z,22.49
2023-05-12T21:13:53.885Z,22.47
2023-05-12T21:16:20.283Z,22.48
2023-05-12T21:18:46.705Z,22.48
2023-05-12T21:21:13.142Z,22.48
2023-05-12T21:23:39.494Z,22.47
2023-05-12T21:26:05.902Z,22.46
2023-05-12T21:28:32.312Z,22.47
2023-05-12T21:30:58.665Z,22.46
2023-05-12T21:33:25.015Z,22.46
2023-05-12T21:35:51.375Z,22.46
2023-05-12T21:38:17.741Z,22.46
2023-05-12T21:40:44.269Z,22.45
2023-05-12T21:43:10.648Z,22.45
2023-05-12T21:45:37.201Z,22.45
2023-05-12T21:48:03.888Z,22.44
2023-05-12T21:50:30.275Z,22.45
2023-05-12T21:52:56.616Z,22.43
2023-05-12T21:55:22.941Z,22.44
2023-05-12T21:57:49.300Z,22.44
2023-05-12T22:00:18.804Z,22.44
2023-05-12T22:02:45.694Z,22.43
2023-05-12T22:05:12.072Z,22.43
2023-05-12T22:07:38.415Z,22.43
2023-05-12T22:10:05.087Z,22.42
2023-05-12T22:12:31.428Z,22.42
2023-05-12T22:14:57.778Z,22.41
2023-05-12T22:17:24.178Z,22.41
2023-05-12T22:19:50.891Z,22.41
2023-05-12T22:22:17.777Z,22.40
2023-05-12T22:24:44.113Z,22.41
2023-05-12T22:27:10.808Z,22.40
2023-05-12T22:29:37.211Z,22.40
2023-05-12T22:32:03.544Z,22.39
2023-05-12T22:34:29.894Z,22.39
2023-05-12T22:36:56.214Z,22.39
2023-05-12T22:39:22.540Z,22.38
2023-05-12T22:41:48.885Z,22.38
2023-05-12T22:44:15.215Z,22.38
2023-05-12T22:46:41.598Z,22.38
2023-05-12T22:49:07.964Z,22.38
2023-05-12T22:51:34.334Z,22.39
2023-05-12T22:54:00.702Z,22.38
2023-05-12T22:56:27.108Z,22.36
2023-05-12T22:58:53.452Z,22.37
2023-05-12T23:01:19.844Z,22.37
2023-05-12T23:03:46.275Z,22.37
2023-05-12T23:06:12.941Z,22.37
2023-05-12T23:08:39.280Z,22.36
2023-05-12T23:11:05.671Z,22.36
2023-05-12T23:13:32.012Z,22.35
2023-05-12T23:15:58.351Z,22.35
2023-05-12T23:18:24.738Z,22.36
2023-05-12T23:20:51.113Z,22.35
2023-05-12T23:23:17.451Z,22.35
2023-05-12T23:25:43.803Z,22.35
2023-05-12T23:28:10.124Z,22.34
2023-05-12T23:30:36.474Z,22.34
2023-05-12T23:33:02.860Z,22.34
2023-05-12T23:35:29.398Z,22.35
2023-05-12T23:37:55.760Z,22.34
2023-05-12T23:40:22.354Z,22.34
2023-05-12T23:42:48.855Z,22.34
2023-05-12T23:45:15.865Z,22.34
2023-05-12T23:47:43.129Z,22.34
2023-05-12T23:50:09.495Z,22.34
2023-05-12T23:52:35.973Z,22.33
2023-05-12T23:55:02.368Z,22.32
2023-05-12T23:57:28.712Z,22.32
2023-05-12T23:59:55.060Z,22.32
